Terminal Aerodrome Forecast
Issued by NWS Sioux Falls, SD

Home | Current Version | Previous Version | Text Only | Print | Product List | Glossary Off
Versions: 1 2 3 4 5 6 7 8 9 10 11 12 13 14 15 16 17

516
FTUS43 KFSD 151120
TAFHON
TAF
KHON 151120Z 1512/1612 13006KT P6SM -TSRA BKN040CB
     FM151400 13007KT P6SM BKN070
     FM151600 13009KT P6SM BKN090
     FM151800 13011KT P6SM VCTS BKN050CB
     FM152100 13010KT P6SM OVC070
     FM160000 12009KT P6SM TSRA OVC050CB
     FM160500 13006KT P6SM OVC035
     FM160700 19004KT P6SM OVC015=

USA.gov is the U.S. government's official web portal to all federal, state and local government web resources and services.